Time;durP1;ratioP1;P1;durP2;ratioP2;P2;SDS_P1;SDS_P2;PMS_P1;PMS_P2;Temp;Humidity;BMP_temperature;BMP_pressure;BME280_temperature;BME280_humidity;BME280_pressure;Samples;Min_cycle;Max_cycle;Signal;HPM_P1;HPM_P2
2021/11/04 00:01:36;;;;;;;;;;;;;;;;;;5110735;28;19932;-79
2021/11/04 00:04:03;;;;;;;;;;;;;;;;;;5109737;27;19967;-79
2021/11/04 00:06:31;;;;;;;;;;;;;;;;;;5108165;27;19924;-78
2021/11/04 00:08:58;;;;;;;;;;;;;;;;;;5111692;28;20027;-80
2021/11/04 00:11:25;;;;;;;;;;;;;;;;;;5111189;28;20083;-80
2021/11/04 00:13:53;;;;;;;;;;;;;;;;;;5122190;27;19928;-78
2021/11/04 00:16:20;;;;;;;;;;;;;;;;;;5110281;28;19928;-78
2021/11/04 00:18:47;;;;;;;;;;;;;;;;;;5108822;28;19927;-78
2021/11/04 00:21:14;;;;;;;;;;;;;;;;;;5108260;28;19923;-79
2021/11/04 00:23:41;;;;;;;;;;;;;;;;;;5109695;28;20352;-78
2021/11/04 00:26:09;;;;;;;;;;;;;;;;;;5109337;28;19932;-79
2021/11/04 00:28:36;;;;;;;;;;;;;;;;;;5109356;28;20281;-79
2021/11/04 00:31:04;;;;;;;;;;;;;;;;;;5109292;28;19935;-80
2021/11/04 00:33:31;;;;;;;;;;;;;;;;;;5108077;28;20415;-78
2021/11/04 00:35:58;;;;;;;;;;;;;;;;;;5108542;28;19939;-80
2021/11/04 00:38:25;;;;;;;;;;;;;;;;;;5109590;28;19932;-80
2021/11/04 00:40:55;;;;;;;;;;;;;;;;;;5109386;28;19939;-77
2021/11/04 00:43:22;;;;;;;;;;;;;;;;;;5107423;28;19928;-78
2021/11/04 00:45:49;;;;;;;;;;;;;;;;;;5109383;28;19923;-79
2021/11/04 00:48:18;;;;;;;;;;;;;;;;;;5111159;28;20357;-78
2021/11/04 00:50:45;;;;;;;;;;;;;;;;;;5108819;28;19939;-78
2021/11/04 00:53:12;;;;;;;;;;;;;;;;;;5107461;28;19938;-78
2021/11/04 00:55:39;;;;;;;;;;;;;;;;;;5107249;28;19954;-80
2021/11/04 00:58:06;;;;;;;;;;;;;;;;;;5107977;28;19980;-80
2021/11/04 01:00:33;;;;;;;;;;;;;;;;;;5108756;28;19927;-81
2021/11/04 01:03:00;;;;;;;;;;;;;;;;;;5108543;28;19924;-80
2021/11/04 01:05:29;;;;;;;;;;;;;;;;;;5111198;28;19924;-80
2021/11/04 01:07:57;;;;;;;;;;;;;;;;;;5108834;28;19931;-80
2021/11/04 01:10:24;;;;;;;;;;;;;;;;;;5108459;28;19934;-80
2021/11/04 01:12:51;;;;;;;;;;;;;;;;;;5119034;27;19927;-80
2021/11/04 01:15:19;;;;;;;;;;;;;;;;;;5110343;28;19928;-77
2021/11/04 01:17:46;;;;;;;;;;;;;;;;;;5107039;28;19927;-77
2021/11/04 01:20:14;;;;;;;;;;;;;;;;;;5109391;28;19928;-77
2021/11/04 01:22:43;;;;;;;;;;;;;;;;;;5110846;28;20059;-77
2021/11/04 01:25:10;;;;;;;;;;;;;;;;;;5107826;28;20292;-78
2021/11/04 01:27:37;;;;;;;;;;;;;;;;;;5108257;28;19923;-79
2021/11/04 01:30:05;;;;;;;;;;;;;;;;;;5107749;28;19924;-77
2021/11/04 01:32:32;;;;;;;;;;;;;;;;;;5108042;28;19928;-79
2021/11/04 01:35:00;;;;;;;;;;;;;;;;;;5108990;28;19931;-78
2021/11/04 01:37:27;;;;;;;;;;;;;;;;;;5107929;28;20386;-78
2021/11/04 01:39:55;;;;;;;;;;;;;;;;;;5109455;28;19928;-80
2021/11/04 01:42:22;;;;;;;;;;;;;;;;;;5106377;28;19928;-79
2021/11/04 01:44:49;;;;;;;;;;;;;;;;;;5106188;28;19928;-77
2021/11/04 01:47:17;;;;;;;;;;;;;;;;;;5108593;28;19931;-81
2021/11/04 01:49:44;;;;;;;;;;;;;;;;;;5107648;28;19938;-80
2021/11/04 01:52:12;;;;;;;;;;;;;;;;;;5107843;28;19928;-80
2021/11/04 01:54:39;;;;;;;;;;;;;;;;;;5108180;28;20260;-79
2021/11/04 01:57:07;;;;;;;;;;;;;;;;;;5106443;28;19927;-79
2021/11/04 01:59:35;;;;;;;;;;;;;;;;;;5107261;28;20286;-80
2021/11/04 02:02:05;;;;;;;;;;;;;;;;;;5111216;28;19927;-79
2021/11/04 02:04:36;;;;;;;;;;;;;;;;;;5108235;28;19934;-78
2021/11/04 02:07:07;;;;;;;;;;;;;;;;;;5106824;28;19935;-79
2021/11/04 02:09:37;;;;;;;;;;;;;;;;;;5110383;28;19935;-81
2021/11/04 02:12:08;;;;;;;;;;;;;;;;;;5113288;28;19934;-85
2021/11/04 02:14:42;;;;;;;;;;;;;;;;;;5115357;28;19923;-80
2021/11/04 02:17:09;;;;;;;;;;;;;;;;;;5107020;28;19924;-79
2021/11/04 02:19:39;;;;;;;;;;;;;;;;;;5107173;28;19932;-79
2021/11/04 02:22:09;;;;;;;;;;;;;;;;;;5108854;28;19939;-80
2021/11/04 02:24:38;;;;;;;;;;;;;;;;;;5109870;28;20268;-78
2021/11/04 02:27:08;;;;;;;;;;;;;;;;;;5107947;28;19928;-80
2021/11/04 02:29:36;;;;;;;;;;;;;;;;;;5108469;28;19923;-78
2021/11/04 02:32:04;;;;;;;;;;;;;;;;;;5107010;28;19990;-80
2021/11/04 02:34:32;;;;;;;;;;;;;;;;;;5106222;28;19931;-79
2021/11/04 02:37:00;;;;;;;;;;;;;;;;;;5109593;28;19931;-79
2021/11/04 02:39:27;;;;;;;;;;;;;;;;;;5106043;28;20167;-80
2021/11/04 02:41:54;;;;;;;;;;;;;;;;;;5106616;28;19992;-80
2021/11/04 02:44:25;;;;;;;;;;;;;;;;;;5106228;28;20408;-80
2021/11/04 02:46:54;;;;;;;;;;;;;;;;;;5110016;28;19928;-77
2021/11/04 02:49:22;;;;;;;;;;;;;;;;;;5108401;28;19954;-78
2021/11/04 02:51:49;;;;;;;;;;;;;;;;;;5107930;28;19924;-79
2021/11/04 02:54:16;;;;;;;;;;;;;;;;;;5108383;28;19932;-79
2021/11/04 02:56:45;;;;;;;;;;;;;;;;;;5106921;28;19928;-79
2021/11/04 02:59:12;;;;;;;;;;;;;;;;;;5110327;28;19928;-79
2021/11/04 03:01:42;;;;;;;;;;;;;;;;;;5107348;28;20204;-79
2021/11/04 03:04:09;;;;;;;;;;;;;;;;;;5108428;28;19924;-79
2021/11/04 03:06:36;;;;;;;;;;;;;;;;;;5107769;28;19927;-79
2021/11/04 03:09:04;;;;;;;;;;;;;;;;;;5105668;28;19928;-80
2021/11/04 03:11:31;;;;;;;;;;;;;;;;;;5106977;28;19928;-80
2021/11/04 03:13:59;;;;;;;;;;;;;;;;;;5119429;27;19923;-80
2021/11/04 03:16:27;;;;;;;;;;;;;;;;;;5132609;27;19923;-79
2021/11/04 03:18:57;;;;;;;;;;;;;;;;;;5130644;27;19953;-80
2021/11/04 03:21:25;;;;;;;;;;;;;;;;;;5134645;27;19923;-78
2021/11/04 03:23:52;;;;;;;;;;;;;;;;;;5133378;27;19970;-78
2021/11/04 03:26:19;;;;;;;;;;;;;;;;;;5130507;27;19938;-78
2021/11/04 03:28:47;;;;;;;;;;;;;;;;;;5129419;27;19927;-78
2021/11/04 03:31:15;;;;;;;;;;;;;;;;;;5130642;27;19934;-78
2021/11/04 03:33:42;;;;;;;;;;;;;;;;;;5131834;27;19927;-78
2021/11/04 03:36:11;;;;;;;;;;;;;;;;;;5131572;27;19927;-78
2021/11/04 03:38:39;;;;;;;;;;;;;;;;;;5131432;27;20367;-78
2021/11/04 03:41:07;;;;;;;;;;;;;;;;;;5129571;27;19939;-77
2021/11/04 03:43:35;;;;;;;;;;;;;;;;;;5129388;27;19927;-78
2021/11/04 03:46:02;;;;;;;;;;;;;;;;;;5129286;27;19927;-78
2021/11/04 03:48:30;;;;;;;;;;;;;;;;;;5131348;27;20319;-78
2021/11/04 03:50:58;;;;;;;;;;;;;;;;;;5131216;27;19931;-80
2021/11/04 03:53:26;;;;;;;;;;;;;;;;;;5130479;27;19958;-79
2021/11/04 03:55:53;;;;;;;;;;;;;;;;;;5133052;27;20316;-80
2021/11/04 03:58:21;;;;;;;;;;;;;;;;;;5130095;27;19928;-80
2021/11/04 04:00:48;;;;;;;;;;;;;;;;;;5132176;27;19928;-80
2021/11/04 04:03:15;;;;;;;;;;;;;;;;;;5128887;27;20197;-79
2021/11/04 04:05:42;;;;;;;;;;;;;;;;;;5131629;27;19935;-80
2021/11/04 04:08:09;;;;;;;;;;;;;;;;;;5130011;27;19927;-79
2021/11/04 04:10:38;;;;;;;;;;;;;;;;;;5130147;27;19923;-79
2021/11/04 04:13:05;;;;;;;;;;;;;;;;;;5118861;27;20310;-79
2021/11/04 04:15:32;;;;;;;;;;;;;;;;;;5128454;27;20789;-79
2021/11/04 04:17:59;;;;;;;;;;;;;;;;;;5130334;27;19927;-79
2021/11/04 04:20:27;;;;;;;;;;;;;;;;;;5129232;27;20289;-79
2021/11/04 04:22:54;;;;;;;;;;;;;;;;;;5130337;27;19923;-80
2021/11/04 04:25:21;;;;;;;;;;;;;;;;;;5128519;27;19927;-79
2021/11/04 04:27:50;;;;;;;;;;;;;;;;;;5132994;27;19923;-79
2021/11/04 04:30:17;;;;;;;;;;;;;;;;;;5132672;27;19934;-80
2021/11/04 04:32:44;;;;;;;;;;;;;;;;;;5132299;27;19927;-80
2021/11/04 04:35:11;;;;;;;;;;;;;;;;;;5132603;27;19935;-79
2021/11/04 04:37:38;;;;;;;;;;;;;;;;;;5132271;27;20395;-79
2021/11/04 04:40:05;;;;;;;;;;;;;;;;;;5132978;27;19939;-80
2021/11/04 04:42:33;;;;;;;;;;;;;;;;;;5132170;27;20092;-80
2021/11/04 04:45:01;;;;;;;;;;;;;;;;;;5132575;27;19923;-79
2021/11/04 04:47:28;;;;;;;;;;;;;;;;;;5132471;27;20423;-80
2021/11/04 04:49:58;;;;;;;;;;;;;;;;;;5132594;27;19923;-79
2021/11/04 04:52:25;;;;;;;;;;;;;;;;;;5133693;27;19995;-80
2021/11/04 04:54:53;;;;;;;;;;;;;;;;;;5132498;27;19967;-80
2021/11/04 04:57:23;;;;;;;;;;;;;;;;;;5131897;27;19934;-79
2021/11/04 04:59:50;;;;;;;;;;;;;;;;;;5132158;27;20403;-79
2021/11/04 05:02:18;;;;;;;;;;;;;;;;;;5131888;27;20345;-80
2021/11/04 05:04:45;;;;;;;;;;;;;;;;;;5131690;27;19923;-80
2021/11/04 05:07:12;;;;;;;;;;;;;;;;;;5131205;27;19927;-79
2021/11/04 05:09:39;;;;;;;;;;;;;;;;;;5132069;27;20352;-80
2021/11/04 05:12:07;;;;;;;;;;;;;;;;;;5128202;27;19923;-79
2021/11/04 05:14:34;;;;;;;;;;;;;;;;;;5125744;27;20271;-79
2021/11/04 05:17:01;;;;;;;;;;;;;;;;;;5131946;27;19927;-79
2021/11/04 05:19:30;;;;;;;;;;;;;;;;;;5131338;27;19927;-79
2021/11/04 05:21:57;;;;;;;;;;;;;;;;;;5131540;27;19935;-80
2021/11/04 05:24:24;;;;;;;;;;;;;;;;;;5132493;27;19924;-79
2021/11/04 05:26:51;;;;;;;;;;;;;;;;;;5131776;27;19928;-77
2021/11/04 05:29:19;;;;;;;;;;;;;;;;;;5131275;27;19935;-80
2021/11/04 05:31:46;;;;;;;;;;;;;;;;;;5131181;27;20384;-79
2021/11/04 05:34:14;;;;;;;;;;;;;;;;;;5131126;27;19935;-78
2021/11/04 05:36:42;;;;;;;;;;;;;;;;;;5131482;27;19927;-77
2021/11/04 05:39:09;;;;;;;;;;;;;;;;;;5130657;27;19954;-77
2021/11/04 05:41:36;;;;;;;;;;;;;;;;;;5124351;27;19931;-78
2021/11/04 05:44:03;;;;;;;;;;;;;;;;;;5130648;27;19927;-78
2021/11/04 05:46:30;;;;;;;;;;;;;;;;;;5132349;27;19923;-78
2021/11/04 05:48:58;;;;;;;;;;;;;;;;;;5131627;27;19927;-80
2021/11/04 05:51:25;;;;;;;;;;;;;;;;;;5131264;27;19966;-79
2021/11/04 05:53:53;;;;;;;;;;;;;;;;;;5131107;27;19938;-80
2021/11/04 05:56:20;;;;;;;;;;;;;;;;;;5130674;27;19927;-78
2021/11/04 05:58:49;;;;;;;;;;;;;;;;;;5126861;27;20513;-78
2021/11/04 06:01:16;;;;;;;;;;;;;;;;;;5119167;27;19924;-78
2021/11/04 06:03:43;;;;;;;;;;;;;;;;;;5111325;28;19931;-78
2021/11/04 06:06:10;;;;;;;;;;;;;;;;;;5111276;28;19923;-78
2021/11/04 06:08:37;;;;;;;;;;;;;;;;;;5111014;28;19942;-78
2021/11/04 06:11:06;;;;;;;;;;;;;;;;;;5112991;28;19932;-78
2021/11/04 06:13:33;;;;;;;;;;;;;;;;;;5124965;27;20860;-78
2021/11/04 06:16:00;;;;;;;;;;;;;;;;;;5122673;28;19923;-78
2021/11/04 06:18:27;;;;;;;;;;;;;;;;;;5123340;27;19939;-78
2021/11/04 06:20:55;;;;;;;;;;;;;;;;;;5118542;28;20789;-78
2021/11/04 06:23:22;;;;;;;;;;;;;;;;;;5124074;28;20263;-78
2021/11/04 06:25:49;;;;;;;;;;;;;;;;;;5123475;28;19927;-78
2021/11/04 06:28:17;;;;;;;;;;;;;;;;;;5127963;28;20426;-77
2021/11/04 06:30:44;;;;;;;;;;;;;;;;;;5129931;28;19950;-78
2021/11/04 06:33:11;;;;;;;;;;;;;;;;;;5129272;28;19930;-79
2021/11/04 06:35:38;;;;;;;;;;;;;;;;;;5129333;28;19931;-78
2021/11/04 06:38:06;;;;;;;;;;;;;;;;;;5128935;28;19923;-81
2021/11/04 06:40:33;;;;;;;;;;;;;;;;;;5124328;28;19967;-78
2021/11/04 06:43:01;;;;;;;;;;;;;;;;;;5129373;28;19935;-78
2021/11/04 06:45:30;;;;;;;;;;;;;;;;;;5128901;28;19927;-78
2021/11/04 06:47:59;;;;;;;;;;;;;;;;;;5125998;28;19970;-78
2021/11/04 06:50:30;;;;;;;;;;;;;;;;;;5109867;28;19985;-78
2021/11/04 06:53:01;;;;;;;;;;;;;;;;;;5111818;28;19927;-78
2021/11/04 06:55:29;;;;;;;;;;;;;;;;;;5111414;28;20521;-79
2021/11/04 06:58:00;;;;;;;;;;;;;;;;;;5130794;27;19923;-79
2021/11/04 07:00:29;;;;;;;;;;;;;;;;;;5130528;27;20318;-80
2021/11/04 07:02:59;;;;;;;;;;;;;;;;;;5111182;28;19924;-80
2021/11/04 07:05:26;;;;;;;;;;;;;;;;;;5111328;28;20280;-80
2021/11/04 07:07:57;;;;;;;;;;;;;;;;;;5111298;28;20265;-80
2021/11/04 07:10:24;;;;;;;;;;;;;;;;;;5111106;28;20363;-78
2021/11/04 07:12:52;;;;;;;;;;;;;;;;;;5123109;27;19954;-78
2021/11/04 07:15:20;;;;;;;;;;;;;;;;;;5131110;27;20411;-80
2021/11/04 07:17:48;;;;;;;;;;;;;;;;;;5131926;27;19946;-80
2021/11/04 07:20:16;;;;;;;;;;;;;;;;;;5131537;27;19954;-79
2021/11/04 07:22:49;;;;;;;;;;;;;;;;;;5131696;27;20123;-79
2021/11/04 07:25:17;;;;;;;;;;;;;;;;;;5131241;27;20131;-80
2021/11/04 07:27:51;;;;;;;;;;;;;;;;;;5129918;27;19972;-78
2021/11/04 07:30:19;;;;;;;;;;;;;;;;;;5131002;27;19939;-79
2021/11/04 07:32:47;;;;;;;;;;;;;;;;;;5127786;27;19997;-80
2021/11/04 07:35:17;;;;;;;;;;;;;;;;;;5109428;28;19928;-79
2021/11/04 07:37:45;;;;;;;;;;;;;;;;;;5115576;27;19927;-79
2021/11/04 07:40:13;;;;;;;;;;;;;;;;;;5122516;27;19938;-79
2021/11/04 07:42:40;;;;;;;;;;;;;;;;;;5119976;27;20267;-78
2021/11/04 07:45:08;;;;;;;;;;;;;;;;;;5115807;27;20170;-80
2021/11/04 07:47:36;;;;;;;;;;;;;;;;;;5122400;27;19938;-79
2021/11/04 07:50:04;;;;;;;;;;;;;;;;;;5131178;27;19931;-78
2021/11/04 07:52:33;;;;;;;;;;;;;;;;;;5131518;27;19938;-79
2021/11/04 07:55:00;;;;;;;;;;;;;;;;;;5130139;27;19931;-78
2021/11/04 07:57:27;;;;;;;;;;;;;;;;;;5129885;27;20633;-79
2021/11/04 07:59:54;;;;;;;;;;;;;;;;;;5130509;27;19935;-78
2021/11/04 08:02:21;;;;;;;;;;;;;;;;;;5130206;27;19934;-78
2021/11/04 08:04:48;;;;;;;;;;;;;;;;;;5131023;27;19927;-79
2021/11/04 08:07:16;;;;;;;;;;;;;;;;;;5130806;27;19928;-78
2021/11/04 08:09:44;;;;;;;;;;;;;;;;;;5130283;27;19928;-78
2021/11/04 08:12:11;;;;;;;;;;;;;;;;;;5127195;27;19961;-78
2021/11/04 08:14:39;;;;;;;;;;;;;;;;;;5113405;27;19935;-78
2021/11/04 08:17:06;;;;;;;;;;;;;;;;;;5125623;27;20014;-78
2021/11/04 08:19:34;;;;;;;;;;;;;;;;;;5130138;27;19927;-78
2021/11/04 08:22:01;;;;;;;;;;;;;;;;;;5130871;27;20042;-78
2021/11/04 08:24:29;;;;;;;;;;;;;;;;;;5125360;27;19928;-79
2021/11/04 08:26:57;;;;;;;;;;;;;;;;;;5128820;27;19923;-80
2021/11/04 08:29:24;;;;;;;;;;;;;;;;;;5128522;27;19962;-80
2021/11/04 08:31:51;;;;;;;;;;;;;;;;;;5129177;27;19938;-80
2021/11/04 08:34:18;;;;;;;;;;;;;;;;;;5110336;27;20361;-79
2021/11/04 08:36:45;;;;;;;;;;;;;;;;;;5129649;27;19927;-81
2021/11/04 08:39:13;;;;;;;;;;;;;;;;;;5129439;27;19928;-78
2021/11/04 08:41:40;;;;;;;;;;;;;;;;;;5129621;27;19927;-79
2021/11/04 08:44:09;;;;;;;;;;;;;;;;;;5129862;27;19927;-79
2021/11/04 08:46:36;;;;;;;;;;;;;;;;;;5128938;27;19927;-79
2021/11/04 08:49:04;;;;;;;;;;;;;;;;;;5128937;27;19928;-80
2021/11/04 08:51:31;;;;;;;;;;;;;;;;;;5129741;27;19939;-80
2021/11/04 08:53:59;;;;;;;;;;;;;;;;;;5130313;27;19938;-80
2021/11/04 08:56:26;;;;;;;;;;;;;;;;;;5129083;27;19923;-81
2021/11/04 08:58:53;;;;;;;;;;;;;;;;;;5128430;27;20414;-78
2021/11/04 09:01:24;;;;;;;;;;;;;;;;;;5129432;27;19924;-78
2021/11/04 09:03:51;;;;;;;;;;;;;;;;;;5129818;27;19935;-79
2021/11/04 09:06:18;;;;;;;;;;;;;;;;;;5129843;27;19927;-80
2021/11/04 09:08:45;;;;;;;;;;;;;;;;;;5128322;27;19923;-80
2021/11/04 09:11:12;;;;;;;;;;;;;;;;;;5129799;27;19970;-80
2021/11/04 09:13:39;;;;;;;;;;;;;;;;;;5125797;27;20253;-78
2021/11/04 09:16:07;;;;;;;;;;;;;;;;;;5129878;27;19930;-80
2021/11/04 09:18:35;;;;;;;;;;;;;;;;;;5128820;27;19927;-78
2021/11/04 09:21:02;;;;;;;;;;;;;;;;;;5129721;27;19927;-78
2021/11/04 09:23:29;;;;;;;;;;;;;;;;;;5110080;27;19939;-78
2021/11/04 09:25:56;;;;;;;;;;;;;;;;;;5109140;28;19924;-78
2021/11/04 09:28:23;;;;;;;;;;;;;;;;;;5119471;27;19927;-78
2021/11/04 09:30:50;;;;;;;;;;;;;;;;;;5129369;27;19935;-79
2021/11/04 09:33:18;;;;;;;;;;;;;;;;;;5130064;27;19934;-80
2021/11/04 09:35:46;;;;;;;;;;;;;;;;;;5129779;27;19934;-78
2021/11/04 09:38:13;;;;;;;;;;;;;;;;;;5128916;27;20167;-78
2021/11/04 09:40:41;;;;;;;;;;;;;;;;;;5128843;27;19935;-81
2021/11/04 09:43:08;;;;;;;;;;;;;;;;;;5129414;27;20391;-83
2021/11/04 09:45:35;;;;;;;;;;;;;;;;;;5129270;27;19923;-83
2021/11/04 09:48:03;;;;;;;;;;;;;;;;;;5129054;27;19943;-81
2021/11/04 09:50:30;;;;;;;;;;;;;;;;;;5129591;27;19923;-83
2021/11/04 09:52:59;;;;;;;;;;;;;;;;;;5129273;27;19927;-82
2021/11/04 09:55:27;;;;;;;;;;;;;;;;;;5128562;27;19924;-82
2021/11/04 09:57:55;;;;;;;;;;;;;;;;;;5128852;27;19927;-83
2021/11/04 10:00:23;;;;;;;;;;;;;;;;;;5128151;27;20279;-84
2021/11/04 10:03:00;;;;;;;;;;;;;;;;;;5128762;27;19935;-83
2021/11/04 10:05:27;;;;;;;;;;;;;;;;;;5129000;27;20394;-83
2021/11/04 10:07:54;;;;;;;;;;;;;;;;;;5129139;27;19923;-84
2021/11/04 10:10:22;;;;;;;;;;;;;;;;;;5128860;27;19934;-82
2021/11/04 10:12:56;;;;;;;;;;;;;;;;;;5126487;27;19927;-83
2021/11/04 10:15:23;;;;;;;;;;;;;;;;;;5108763;28;20288;-81
2021/11/04 10:17:51;;;;;;;;;;;;;;;;;;5108167;28;19955;-82
2021/11/04 10:20:19;;;;;;;;;;;;;;;;;;5108367;28;20352;-82
2021/11/04 10:22:58;;;;;;;;;;;;;;;;;;5108415;28;19946;-82
2021/11/04 10:25:27;;;;;;;;;;;;;;;;;;5110794;28;19935;-83
2021/11/04 10:27:54;;;;;;;;;;;;;;;;;;5112446;28;19934;-83
2021/11/04 10:30:40;;;;;;;;;;;;;;;;;;5125945;27;19938;-83
2021/11/04 10:33:18;;;;;;;;;;;;;;;;;;5132705;27;20333;-83
2021/11/04 10:35:49;;;;;;;;;;;;;;;;;;5133091;27;19938;-83
2021/11/04 10:38:16;;;;;;;;;;;;;;;;;;5129117;27;19951;-83
2021/11/04 10:40:45;;;;;;;;;;;;;;;;;;5132664;27;19927;-81
2021/11/04 10:43:12;;;;;;;;;;;;;;;;;;5131709;27;19939;-82
2021/11/04 10:45:39;;;;;;;;;;;;;;;;;;5132350;27;19927;-82
2021/11/04 10:48:16;;;;;;;;;;;;;;;;;;5132443;27;19927;-81
2021/11/04 10:50:44;;;;;;;;;;;;;;;;;;5131599;27;20364;-81
2021/11/04 10:53:11;;;;;;;;;;;;;;;;;;5131676;27;19937;-82
2021/11/04 10:55:39;;;;;;;;;;;;;;;;;;5129916;27;19927;-82
2021/11/04 10:58:25;;;;;;;;;;;;;;;;;;5130689;27;20329;-81
2021/11/04 11:00:52;;;;;;;;;;;;;;;;;;5131874;27;19939;-82
2021/11/04 11:03:21;;;;;;;;;;;;;;;;;;5131948;27;19924;-82
2021/11/04 11:05:49;;;;;;;;;;;;;;;;;;5132233;27;20005;-81
2021/11/04 11:08:16;;;;;;;;;;;;;;;;;;5132262;27;20268;-82
2021/11/04 11:10:44;;;;;;;;;;;;;;;;;;5131827;27;19960;-81
2021/11/04 11:13:12;;;;;;;;;;;;;;;;;;5129307;27;20360;-83
2021/11/04 11:15:41;;;;;;;;;;;;;;;;;;5132416;27;19927;-82
2021/11/04 11:18:09;;;;;;;;;;;;;;;;;;5131812;27;20343;-82
2021/11/04 11:20:41;;;;;;;;;;;;;;;;;;5131303;27;19963;-83
2021/11/04 11:23:08;;;;;;;;;;;;;;;;;;5131921;27;19927;-79
2021/11/04 11:25:36;;;;;;;;;;;;;;;;;;5131810;27;19923;-79
2021/11/04 11:28:04;;;;;;;;;;;;;;;;;;5132253;27;20629;-79
2021/11/04 11:30:51;;;;;;;;;;;;;;;;;;5131400;27;20138;-80
2021/11/04 11:33:20;;;;;;;;;;;;;;;;;;5110527;27;19927;-80
2021/11/04 11:36:08;;;;;;;;;;;;;;;;;;5130269;27;19984;-81
2021/11/04 11:38:50;;;;;;;;;;;;;;;;;;5130874;27;19934;-79
2021/11/04 11:41:17;;;;;;;;;;;;;;;;;;5131607;27;19923;-79
2021/11/04 11:43:50;;;;;;;;;;;;;;;;;;5130914;27;19927;-81
2021/11/04 11:46:17;;;;;;;;;;;;;;;;;;5130912;27;19924;-79
2021/11/04 11:49:06;;;;;;;;;;;;;;;;;;5130422;27;19927;-79
2021/11/04 11:51:40;;;;;;;;;;;;;;;;;;5130917;27;19931;-80
2021/11/04 11:54:08;;;;;;;;;;;;;;;;;;5131308;27;19923;-79
2021/11/04 11:56:35;;;;;;;;;;;;;;;;;;5131375;27;19927;-79
2021/11/04 11:59:27;;;;;;;;;;;;;;;;;;5130928;27;19923;-79
2021/11/04 12:01:54;;;;;;;;;;;;;;;;;;5127976;27;20022;-81
2021/11/04 12:04:24;;;;;;;;;;;;;;;;;;5131059;27;19935;-81
2021/11/04 12:06:54;;;;;;;;;;;;;;;;;;5130903;27;20024;-81
2021/11/04 12:09:38;;;;;;;;;;;;;;;;;;5130877;27;20379;-79
2021/11/04 12:12:06;;;;;;;;;;;;;;;;;;5131055;27;20024;-79
2021/11/04 12:14:34;;;;;;;;;;;;;;;;;;5127590;27;20384;-79
2021/11/04 12:17:08;;;;;;;;;;;;;;;;;;5130704;27;19931;-79
2021/11/04 12:19:36;;;;;;;;;;;;;;;;;;5130312;27;19927;-80
2021/11/04 12:22:04;;;;;;;;;;;;;;;;;;5130788;27;19939;-78
2021/11/04 12:24:31;;;;;;;;;;;;;;;;;;5130547;27;19935;-79
2021/11/04 12:27:07;;;;;;;;;;;;;;;;;;5130330;27;20241;-78
2021/11/04 12:29:34;;;;;;;;;;;;;;;;;;5131184;27;19923;-79
2021/11/04 12:32:07;;;;;;;;;;;;;;;;;;5130539;27;19934;-79
2021/11/04 12:34:34;;;;;;;;;;;;;;;;;;5130316;27;19978;-79
2021/11/04 12:37:07;;;;;;;;;;;;;;;;;;5129838;27;19927;-79
2021/11/04 12:39:35;;;;;;;;;;;;;;;;;;5135732;27;19927;-80
2021/11/04 12:42:02;;;;;;;;;;;;;;;;;;5140696;27;19934;-81
2021/11/04 12:44:31;;;;;;;;;;;;;;;;;;5130223;27;20352;-80
2021/11/04 12:46:59;;;;;;;;;;;;;;;;;;5129867;27;20811;-80
2021/11/04 12:49:27;;;;;;;;;;;;;;;;;;5129664;27;19986;-79
2021/11/04 12:51:55;;;;;;;;;;;;;;;;;;5129976;27;19923;-81
2021/11/04 12:54:24;;;;;;;;;;;;;;;;;;5130189;27;19928;-81
2021/11/04 12:56:54;;;;;;;;;;;;;;;;;;5129795;27;19927;-81
2021/11/04 12:59:32;;;;;;;;;;;;;;;;;;5130199;27;19938;-80
2021/11/04 13:02:00;;;;;;;;;;;;;;;;;;5129435;27;19927;-79
2021/11/04 13:04:28;;;;;;;;;;;;;;;;;;5130007;27;19930;-81
2021/11/04 13:06:56;;;;;;;;;;;;;;;;;;5129257;27;19923;-81
2021/11/04 13:09:24;;;;;;;;;;;;;;;;;;5129884;27;19962;-79
2021/11/04 13:12:04;;;;;;;;;;;;;;;;;;5114462;27;19923;-79
2021/11/04 13:14:46;;;;;;;;;;;;;;;;;;5127268;27;19954;-79
2021/11/04 13:17:13;;;;;;;;;;;;;;;;;;5129753;27;19927;-79
2021/11/04 13:19:53;;;;;;;;;;;;;;;;;;5129472;27;19923;-79
2021/11/04 13:22:20;;;;;;;;;;;;;;;;;;5128696;27;19935;-80
2021/11/04 13:24:48;;;;;;;;;;;;;;;;;;5129219;27;19924;-79
2021/11/04 13:27:16;;;;;;;;;;;;;;;;;;5128540;27;19933;-78
2021/11/04 13:29:47;;;;;;;;;;;;;;;;;;5130025;27;19950;-79
2021/11/04 13:32:14;;;;;;;;;;;;;;;;;;5129653;27;19941;-81
2021/11/04 13:34:41;;;;;;;;;;;;;;;;;;5129492;27;19950;-79
2021/11/04 13:37:13;;;;;;;;;;;;;;;;;;5129080;27;19939;-79
2021/11/04 13:39:40;;;;;;;;;;;;;;;;;;5129078;27;19923;-79
2021/11/04 13:42:07;;;;;;;;;;;;;;;;;;5116467;27;19924;-80
2021/11/04 13:44:36;;;;;;;;;;;;;;;;;;5108692;28;19935;-81
2021/11/04 13:47:04;;;;;;;;;;;;;;;;;;5108767;28;19960;-80
2021/11/04 13:49:31;;;;;;;;;;;;;;;;;;5108419;28;20022;-80
2021/11/04 13:52:00;;;;;;;;;;;;;;;;;;5108576;28;20078;-79
2021/11/04 13:54:29;;;;;;;;;;;;;;;;;;5108674;28;20003;-80
2021/11/04 13:57:03;;;;;;;;;;;;;;;;;;5108374;28;20184;-80
2021/11/04 13:59:32;;;;;;;;;;;;;;;;;;5108035;28;19928;-80
2021/11/04 14:02:01;;;;;;;;;;;;;;;;;;5108522;28;19928;-80
2021/11/04 14:04:28;;;;;;;;;;;;;;;;;;5107958;28;19984;-80
2021/11/04 14:06:55;;;;;;;;;;;;;;;;;;5108192;28;20244;-79
2021/11/04 14:09:26;;;;;;;;;;;;;;;;;;5108673;28;19928;-80
2021/11/04 14:12:00;;;;;;;;;;;;;;;;;;5123856;27;19958;-79
2021/11/04 14:14:28;;;;;;;;;;;;;;;;;;5123975;28;19923;-80
2021/11/04 14:17:04;;;;;;;;;;;;;;;;;;5128320;28;19924;-79
2021/11/04 14:19:32;;;;;;;;;;;;;;;;;;5128133;28;20311;-80
2021/11/04 14:21:59;;;;;;;;;;;;;;;;;;5127839;28;19927;-81
2021/11/04 14:24:28;;;;;;;;;;;;;;;;;;5128655;28;20264;-81
2021/11/04 14:26:55;;;;;;;;;;;;;;;;;;5128668;28;19935;-81
2021/11/04 14:29:22;;;;;;;;;;;;;;;;;;5128839;28;19923;-81
2021/11/04 14:31:52;;;;;;;;;;;;;;;;;;5128612;28;19923;-81
2021/11/04 14:34:22;;;;;;;;;;;;;;;;;;5129371;28;19927;-81
2021/11/04 14:36:49;;;;;;;;;;;;;;;;;;5111062;28;19928;-81
2021/11/04 14:39:17;;;;;;;;;;;;;;;;;;5108333;28;19931;-80
2021/11/04 14:41:44;;;;;;;;;;;;;;;;;;5108566;28;19932;-80
2021/11/04 14:44:11;;;;;;;;;;;;;;;;;;5126344;28;19935;-80
2021/11/04 14:46:38;;;;;;;;;;;;;;;;;;5129100;27;20355;-80
2021/11/04 14:49:06;;;;;;;;;;;;;;;;;;5129610;27;19924;-79
2021/11/04 14:51:35;;;;;;;;;;;;;;;;;;5129533;27;19927;-80
2021/11/04 14:54:02;;;;;;;;;;;;;;;;;;5129174;27;19940;-80
2021/11/04 14:56:29;;;;;;;;;;;;;;;;;;5129796;27;19987;-81
2021/11/04 14:58:56;;;;;;;;;;;;;;;;;;5130518;27;20253;-80
2021/11/04 15:01:23;;;;;;;;;;;;;;;;;;5130236;27;19927;-79
2021/11/04 15:03:51;;;;;;;;;;;;;;;;;;5130109;27;19931;-79
2021/11/04 15:06:19;;;;;;;;;;;;;;;;;;5130271;27;19935;-79
2021/11/04 15:08:47;;;;;;;;;;;;;;;;;;5130410;27;19931;-80
2021/11/04 15:11:14;;;;;;;;;;;;;;;;;;5132396;27;19931;-79
2021/11/04 15:13:41;;;;;;;;;;;;;;;;;;5133911;27;19924;-79
2021/11/04 15:16:10;;;;;;;;;;;;;;;;;;5134151;27;19927;-80
2021/11/04 15:18:37;;;;;;;;;;;;;;;;;;5133314;27;20008;-79
2021/11/04 15:21:04;;;;;;;;;;;;;;;;;;5135064;27;19942;-80
2021/11/04 15:23:31;;;;;;;;;;;;;;;;;;5135031;27;19938;-80
2021/11/04 15:26:00;;;;;;;;;;;;;;;;;;5135172;27;19950;-80
2021/11/04 15:28:27;;;;;;;;;;;;;;;;;;5135220;27;19927;-80
2021/11/04 15:30:54;;;;;;;;;;;;;;;;;;5134755;27;20356;-80
2021/11/04 15:33:21;;;;;;;;;;;;;;;;;;5135062;27;19927;-80
2021/11/04 15:35:48;;;;;;;;;;;;;;;;;;5134978;27;19927;-80
2021/11/04 15:38:15;;;;;;;;;;;;;;;;;;5135154;27;19927;-78
2021/11/04 15:40:43;;;;;;;;;;;;;;;;;;5134920;27;19939;-80
2021/11/04 15:43:11;;;;;;;;;;;;;;;;;;5135229;27;19924;-80
2021/11/04 15:45:38;;;;;;;;;;;;;;;;;;5134195;27;19968;-79
2021/11/04 15:48:06;;;;;;;;;;;;;;;;;;5134951;27;19924;-80
2021/11/04 15:50:33;;;;;;;;;;;;;;;;;;5134306;27;19938;-79
2021/11/04 15:53:00;;;;;;;;;;;;;;;;;;5134480;27;19923;-80
2021/11/04 15:55:27;;;;;;;;;;;;;;;;;;5134401;27;20348;-79
2021/11/04 15:57:54;;;;;;;;;;;;;;;;;;5134731;27;19927;-80
2021/11/04 16:00:23;;;;;;;;;;;;;;;;;;5134485;27;19923;-79
2021/11/04 16:02:50;;;;;;;;;;;;;;;;;;5133994;27;19923;-80
2021/11/04 16:05:17;;;;;;;;;;;;;;;;;;5134239;27;19923;-80
2021/11/04 16:07:44;;;;;;;;;;;;;;;;;;5134161;27;19932;-81
2021/11/04 16:10:11;;;;;;;;;;;;;;;;;;5134421;27;19923;-81
2021/11/04 16:12:38;;;;;;;;;;;;;;;;;;5134183;27;19961;-79
2021/11/04 16:15:06;;;;;;;;;;;;;;;;;;5115213;27;19923;-81
2021/11/04 16:17:34;;;;;;;;;;;;;;;;;;5113517;28;19924;-81
2021/11/04 16:20:01;;;;;;;;;;;;;;;;;;5113542;28;19935;-80
2021/11/04 16:22:28;;;;;;;;;;;;;;;;;;5112923;27;20366;-81
2021/11/04 16:24:55;;;;;;;;;;;;;;;;;;5113764;28;19931;-79
2021/11/04 16:27:22;;;;;;;;;;;;;;;;;;5113214;28;19924;-80
2021/11/04 16:29:49;;;;;;;;;;;;;;;;;;5113293;28;19939;-78
2021/11/04 16:32:16;;;;;;;;;;;;;;;;;;5113275;28;19927;-79
2021/11/04 16:34:45;;;;;;;;;;;;;;;;;;5113219;27;19928;-79
2021/11/04 16:37:33;;;;;;;;;;;;;;;;;;5112950;28;19928;-79
2021/11/04 16:40:00;;;;;;;;;;;;;;;;;;5112837;28;19924;-80
2021/11/04 16:42:28;;;;;;;;;;;;;;;;;;5113364;28;19924;-79
2021/11/04 16:44:55;;;;;;;;;;;;;;;;;;5112905;28;19932;-81
2021/11/04 16:47:22;;;;;;;;;;;;;;;;;;5113156;28;20256;-78
2021/11/04 16:49:50;;;;;;;;;;;;;;;;;;5112974;28;20424;-81
2021/11/04 16:52:17;;;;;;;;;;;;;;;;;;5112835;28;19931;-79
2021/11/04 16:54:44;;;;;;;;;;;;;;;;;;5106655;28;19928;-78